Observation data for Clarendon on 01/20/2019      Previous  Date  Next       Current Mesonet Observations  Soil Data  Daily Summary Page  Observations in Plain Language
KCES 200600Z 20004KT M05/M07 A3029 RMK A01 T10481065  RH  088%=      5-min Rain = 0
KCES 200605Z 20006KT M05/M07 A3029 RMK A01 T10541073  RH  087%=      5-min Rain = 0
KCES 200610Z 22006KT M06/M08 A303 RMK A01 T10591076  RH  088%=      5-min Rain = 0
KCES 200615Z 20006KT M05/M06 A3029 RMK A01 T10511063  RH  091%=      5-min Rain = 0
KCES 200620Z 19006KT M05/M06 A3028 RMK A01 T10451059  RH  090%=      5-min Rain = 0
KCES 200625Z 19006KT M05/M06 A3029 RMK A01 T10461062  RH  089%=      5-min Rain = 0
KCES 200630Z 19006KT M05/M06 A3029 RMK A01 T10481064  RH  089%=      5-min Rain = 0
KCES 200635Z 19006KT M05/M07 A3029 RMK A01 T10481065  RH  088%=      5-min Rain = 0
KCES 200640Z 20006KT M05/M07 A3029 RMK A01 T10491067  RH  088%=      5-min Rain = 0
KCES 200645Z 19007KT M05/M07 A3029 RMK A01 T10501068  RH  087%=      5-min Rain = 0
KCES 200650Z 19007KT M05/M07 A3029 RMK A01 T10481068  RH  086%=      5-min Rain = 0
KCES 200655Z 18006KT M05/M07 A3029 RMK A01 T10491070  RH  085%=      5-min Rain = 0
KCES 200700Z 18006KT M05/M07 A3029 RMK A01 T10501071  RH  085%=      5-min Rain = 0
KCES 200705Z 19007KT M05/M07 A3029 RMK A01 T10511073  RH  085%=      5-min Rain = 0
KCES 200710Z 19005KT M05/M07 A303 RMK A01 T10521073  RH  085%=      5-min Rain = 0
KCES 200715Z 19005KT M05/M08 A3029 RMK A01 T10531075  RH  085%=      5-min Rain = 0
KCES 200720Z 18005KT M05/M08 A3029 RMK A01 T10531075  RH  085%=      5-min Rain = 0
KCES 200725Z 19004KT M06/M08 A3029 RMK A01 T10581080  RH  084%=      5-min Rain = 0
KCES 200730Z 18004KT M06/M08 A3028 RMK A01 T10581078  RH  086%=      5-min Rain = 0
KCES 200735Z 18004KT M06/M08 A3028 RMK A01 T10561076  RH  086%=      5-min Rain = 0
KCES 200740Z 20002KT M06/M08 A3028 RMK A01 T10561077  RH  085%=      5-min Rain = 0
KCES 200745Z 18003KT M06/M08 A3028 RMK A01 T10561077  RH  085%=      5-min Rain = 0
KCES 200750Z 21002KT M06/M08 A3029 RMK A01 T10561078  RH  085%=      5-min Rain = 0
KCES 200755Z 21003KT M06/M08 A3029 RMK A01 T10561077  RH  085%=      5-min Rain = 0
KCES 200800Z 21004KT M06/M08 A3029 RMK A01 T10561078  RH  084%=      5-min Rain = 0
KCES 200805Z 21005KT M06/M08 A3029 RMK A01 T10561078  RH  084%=      5-min Rain = 0
KCES 200810Z 20006KT M06/M08 A303 RMK A01 T10591082  RH  084%=      5-min Rain = 0
KCES 200815Z 18004KT M06/M08 A3029 RMK A01 T10611084  RH  084%=      5-min Rain = 0
KCES 200820Z 19005KT M06/M08 A3029 RMK A01 T10621082  RH  085%=      5-min Rain = 0
KCES 200825Z 19005KT M06/M09 A3029 RMK A01 T10641085  RH  085%=      5-min Rain = 0
KCES 200830Z 18006KT M07/M09 A3028 RMK A01 T10661086  RH  086%=      5-min Rain = 0
KCES 200835Z 18005KT M07/M09 A3029 RMK A01 T10691091  RH  085%=      5-min Rain = 0
KCES 200840Z 18005KT M07/M09 A3029 RMK A01 T10691087  RH  087%=      5-min Rain = 0
KCES 200845Z 18003KT M07/M09 A3029 RMK A01 T10651085  RH  086%=      5-min Rain = 0
KCES 200850Z 16004KT M07/M09 A3029 RMK A01 T10671087  RH  085%=      5-min Rain = 0
KCES 200855Z 17003KT M07/M09 A3029 RMK A01 T10671088  RH  085%=      5-min Rain = 0
KCES 200900Z 16004KT M07/M09 A3029 RMK A01 T10681087  RH  086%=      5-min Rain = 0
KCES 200905Z 15003KT M06/M08 A3029 RMK A01 T10631082  RH  086%=      5-min Rain = 0
KCES 200910Z 17001KT M06/M08 A3029 RMK A01 T10631084  RH  085%=      5-min Rain = 0
KCES 200915Z 17001KT M07/M09 A3029 RMK A01 T10651086  RH  085%=      5-min Rain = 0
KCES 200920Z 19003KT M07/M09 A3029 RMK A01 T10651085  RH  085%=      5-min Rain = 0
KCES 200925Z 18005KT M07/M09 A3029 RMK A01 T10671089  RH  084%=      5-min Rain = 0
KCES 200930Z 18006KT M07/M09 A3028 RMK A01 T10691090  RH  085%=      5-min Rain = 0
KCES 200935Z 18006KT M07/M09 A3028 RMK A01 T10671089  RH  084%=      5-min Rain = 0
KCES 200940Z 20004KT M06/M09 A3028 RMK A01 T10631085  RH  084%=      5-min Rain = 0
KCES 200945Z 21004KT M06/M09 A3028 RMK A01 T10641088  RH  083%=      5-min Rain = 0
KCES 200950Z 20005KT M06/M08 A3028 RMK A01 T10621084  RH  085%=      5-min Rain = 0
KCES 200955Z 20006KT M06/M08 A3028 RMK A01 T10591082  RH  083%=      5-min Rain = 0
KCES 201000Z 20008KT M06/M08 A3028 RMK A01 T10551079  RH  083%=      5-min Rain = 0
KCES 201005Z 20008KT M05/M08 A3027 RMK A01 T10511078  RH  082%=      5-min Rain = 0
KCES 201010Z 21009KT M05/M08 A3027 RMK A01 T10491077  RH  081%=      5-min Rain = 0
KCES 201015Z 20010KT M05/M08 A3027 RMK A01 T10461076  RH  079%=      5-min Rain = 0
KCES 201020Z 20011KT M04/M08 A3027 RMK A01 T10421076  RH  077%=      5-min Rain = 0
KCES 201025Z 20011KT M04/M08 A3027 RMK A01 T10411076  RH  077%=      5-min Rain = 0
KCES 201030Z 20011KT M04/M08 A3027 RMK A01 T10421076  RH  077%=      5-min Rain = 0
KCES 201035Z 20011KT M04/M08 A3026 RMK A01 T10431077  RH  077%=      5-min Rain = 0
KCES 201040Z 20010KT M05/M08 A3026 RMK A01 T10451078  RH  078%=      5-min Rain = 0
KCES 201045Z 20009KT M05/M08 A3026 RMK A01 T10471079  RH  079%=      5-min Rain = 0
KCES 201050Z 20008KT M05/M08 A3025 RMK A01 T10481079  RH  079%=      5-min Rain = 0
KCES 201055Z 20006KT M05/M08 A3025 RMK A01 T10491080  RH  079%=      5-min Rain = 0
KCES 201100Z 19005KT M05/M08 A3025 RMK A01 T10481080  RH  079%=      5-min Rain = 0
KCES 201105Z 19004KT M05/M08 A3025 RMK A01 T10491080  RH  079%=      5-min Rain = 0
KCES 201110Z 19005KT M05/M08 A3025 RMK A01 T10511081  RH  079%=      5-min Rain = 0
KCES 201115Z 20006KT M05/M08 A3025 RMK A01 T10511081  RH  079%=      5-min Rain = 0
KCES 201120Z 20007KT M05/M08 A3025 RMK A01 T10481079  RH  079%=      5-min Rain = 0
KCES 201125Z 20008KT M05/M08 A3024 RMK A01 T10461078  RH  078%=      5-min Rain = 0
KCES 201130Z 19008KT M04/M08 A3024 RMK A01 T10441078  RH  077%=      5-min Rain = 0
KCES 201135Z 20007KT M04/M08 A3024 RMK A01 T10441077  RH  077%=      5-min Rain = 0
KCES 201140Z 20007KT M04/M08 A3024 RMK A01 T10431077  RH  077%=      5-min Rain = 0
KCES 201145Z 20007KT M04/M08 A3024 RMK A01 T10421078  RH  076%=      5-min Rain = 0
KCES 201150Z 20007KT M04/M08 A3024 RMK A01 T10411078  RH  076%=      5-min Rain = 0
KCES 201155Z 20007KT M04/M08 A3024 RMK A01 T10401078  RH  075%=      5-min Rain = 0
KCES 201200Z 20007KT M04/M08 A3024 RMK A01 T10401078  RH  075%=      5-min Rain = 0
KCES 201205Z 20007KT M04/M08 A3024 RMK A01 T10401078  RH  075%=      5-min Rain = 0
KCES 201210Z 19006KT M04/M08 A3023 RMK A01 T10421079  RH  075%=      5-min Rain = 0
KCES 201215Z 20006KT M04/M08 A3023 RMK A01 T10441080  RH  076%=      5-min Rain = 0
KCES 201220Z 19005KT M05/M08 A3023 RMK A01 T10451080  RH  076%=      5-min Rain = 0
KCES 201225Z 20005KT M05/M08 A3023 RMK A01 T10471081  RH  077%=      5-min Rain = 0
KCES 201230Z 20006KT M05/M08 A3023 RMK A01 T10491082  RH  077%=      5-min Rain = 0
KCES 201235Z 19006KT M05/M08 A3022 RMK A01 T10501083  RH  078%=      5-min Rain = 0
KCES 201240Z 20006KT M05/M08 A3023 RMK A01 T10511082  RH  079%=      5-min Rain = 0
KCES 201245Z 21005KT M05/M08 A3023 RMK A01 T10501082  RH  078%=      5-min Rain = 0
KCES 201250Z 21005KT M05/M08 A3023 RMK A01 T10501081  RH  078%=      5-min Rain = 0
KCES 201255Z 22005KT M05/M08 A3023 RMK A01 T10511083  RH  078%=      5-min Rain = 0
KCES 201300Z 22006KT M05/M08 A3022 RMK A01 T10511081  RH  079%=      5-min Rain = 0
KCES 201305Z 21006KT M05/M08 A3022 RMK A01 T10501080  RH  079%=      5-min Rain = 0
KCES 201310Z 22006KT M05/M08 A3023 RMK A01 T10501081  RH  079%=      5-min Rain = 0
KCES 201315Z 22005KT M05/M08 A3023 RMK A01 T10511081  RH  079%=      5-min Rain = 0
KCES 201320Z 20004KT M05/M08 A3023 RMK A01 T10511081  RH  079%=      5-min Rain = 0
KCES 201325Z 20005KT M05/M08 A3023 RMK A01 T10501081  RH  079%=      5-min Rain = 0
KCES 201330Z 20006KT M05/M08 A3023 RMK A01 T10501081  RH  079%=      5-min Rain = 0
KCES 201335Z 20006KT M05/M08 A3023 RMK A01 T10501081  RH  079%=      5-min Rain = 0
KCES 201340Z 20006KT M05/M08 A3023 RMK A01 T10501082  RH  079%=      5-min Rain = 0
KCES 201345Z 20006KT M05/M08 A3023 RMK A01 T10511081  RH  079%=      5-min Rain = 0
KCES 201350Z 20005KT M05/M08 A3023 RMK A01 T10531082  RH  080%=      5-min Rain = 0
KCES 201355Z 21005KT M05/M08 A3023 RMK A01 T10541082  RH  081%=      5-min Rain = 0
KCES 201400Z 21005KT M05/M08 A3023 RMK A01 T10531080  RH  081%=      5-min Rain = 0
KCES 201405Z 22005KT M05/M08 A3023 RMK A01 T10511078  RH  081%=      5-min Rain = 0
KCES 201410Z 22007KT M05/M07 A3022 RMK A01 T10461073  RH  081%=      5-min Rain = 0
KCES 201415Z 22008KT M04/M07 A3022 RMK A01 T10411071  RH  080%=      5-min Rain = 0
KCES 201420Z 22009KT M04/M07 A3022 RMK A01 T10361068  RH  079%=      5-min Rain = 0
KCES 201425Z 22008KT M03/M07 A3022 RMK A01 T10331066  RH  078%=      5-min Rain = 0
KCES 201430Z 22009KT M03/M07 A3022 RMK A01 T10301066  RH  076%=      5-min Rain = 0
KCES 201435Z 23010KT M03/M07 A3022 RMK A01 T10281066  RH  075%=      5-min Rain = 0
KCES 201440Z 22011KT M02/M07 A3022 RMK A01 T10241065  RH  074%=      5-min Rain = 0
KCES 201445Z 22012KT M02/M06 A3022 RMK A01 T10201063  RH  073%=      5-min Rain = 0
KCES 201450Z 22012KT M02/M06 A3021 RMK A01 T10181062  RH  072%=      5-min Rain = 0
KCES 201455Z 22012KT M02/M06 A3021 RMK A01 T10171062  RH  072%=      5-min Rain = 0
KCES 201500Z 22013KT M02/M06 A3021 RMK A01 T10171062  RH  071%=      5-min Rain = 0
KCES 201505Z 22013KT M02/M06 A3021 RMK A01 T10161063  RH  071%=      5-min Rain = 0
KCES 201510Z 22012KT M02/M06 A3021 RMK A01 T10161063  RH  071%=      5-min Rain = 0
KCES 201515Z 22012KT M01/M06 A3021 RMK A01 T10141060  RH  071%=      5-min Rain = 0
KCES 201520Z 22012KT M01/M06 A3021 RMK A01 T10111059  RH  070%=      5-min Rain = 0
KCES 201525Z 22013KT M01/M06 A3021 RMK A01 T10091060  RH  068%=      5-min Rain = 0
KCES 201530Z 22013KT M01/M06 A3021 RMK A01 T10081060  RH  068%=      5-min Rain = 0
KCES 201535Z 22013KT M01/M06 A3021 RMK A01 T10061059  RH  067%=      5-min Rain = 0
KCES 201540Z 22013KT M00/M06 A302 RMK A01 T10031059  RH  066%=      5-min Rain = 0
KCES 201545Z 22014KT M00/M06 A302 RMK A01 T10011058  RH  066%=      5-min Rain = 0
KCES 201550Z 22014KT 00/M06 A302 RMK A01 T00011057  RH  065%=      5-min Rain = 0
KCES 201555Z 22014KT 00/M06 A302 RMK A01 T00031057  RH  064%=      5-min Rain = 0
KCES 201600Z 21013KT 01/M06 A3019 RMK A01 T00061056  RH  063%=      5-min Rain = 0
KCES 201605Z 21015KT 01/M06 A3019 RMK A01 T00071057  RH  062%=      5-min Rain = 0
KCES 201610Z 21015KT 01/M06 A3019 RMK A01 T00111055  RH  061%=      5-min Rain = 0
KCES 201615Z 21015KT 01/M06 A3019 RMK A01 T00111057  RH  061%=      5-min Rain = 0
KCES 201620Z 22016KT 01/M06 A3019 RMK A01 T00111057  RH  060%=      5-min Rain = 0
KCES 201625Z 21015G20KT 01/M06 A3019 RMK A01 T00141056  RH  060%=      5-min Rain = 0
KCES 201630Z 21017KT 02/M06 A3018 RMK A01 T00171055  RH  059%=      5-min Rain = 0
KCES 201635Z 21016KT 02/M05 A3018 RMK A01 T00201054  RH  058%=      5-min Rain = 0
KCES 201640Z 21016G21KT 03/M05 A3018 RMK A01 T00261052  RH  057%=      5-min Rain = 0
KCES 201645Z 21017KT 03/M05 A3018 RMK A01 T00281052  RH  056%=      5-min Rain = 0
KCES 201650Z 21017KT 03/M05 A3018 RMK A01 T00291051  RH  056%=      5-min Rain = 0
KCES 201655Z 21017KT 03/M05 A3018 RMK A01 T00311051  RH  055%=      5-min Rain = 0
KCES 201700Z 21015KT 03/M05 A3018 RMK A01 T00331050  RH  055%=      5-min Rain = 0
KCES 201705Z 21014G19KT 04/M05 A3018 RMK A01 T00361050  RH  054%=      5-min Rain = 0
KCES 201710Z 21014KT 04/M05 A3018 RMK A01 T00371049  RH  054%=      5-min Rain = 0
KCES 201715Z 20015KT 04/M05 A3018 RMK A01 T00421047  RH  053%=      5-min Rain = 0
KCES 201720Z 21014KT 04/M05 A3018 RMK A01 T00411048  RH  053%=      5-min Rain = 0
KCES 201725Z 21012KT 04/M05 A3018 RMK A01 T00431046  RH  052%=      5-min Rain = 0
KCES 201730Z 21014KT 04/M05 A3018 RMK A01 T00441046  RH  052%=      5-min Rain = 0
KCES 201735Z 22012KT 05/M05 A3017 RMK A01 T00461045  RH  052%=      5-min Rain = 0
KCES 201740Z 21011KT 05/M04 A3018 RMK A01 T00481044  RH  051%=      5-min Rain = 0
KCES 201745Z 21011KT 05/M04 A3018 RMK A01 T00491044  RH  051%=      5-min Rain = 0
KCES 201750Z 20012KT 05/M04 A3018 RMK A01 T00511043  RH  051%=      5-min Rain = 0
KCES 201755Z 20012KT 05/M04 A3018 RMK A01 T00531042  RH  051%=      5-min Rain = 0
KCES 201800Z 19011KT 06/M04 A3017 RMK A01 T00561041  RH  050%=      5-min Rain = 0
KCES 201805Z 18010KT 06/M04 A3017 RMK A01 T00591042  RH  048%=      5-min Rain = 0
KCES 201810Z 18010KT 06/M04 A3017 RMK A01 T00601042  RH  048%=      5-min Rain = 0
KCES 201815Z 18010KT 06/M04 A3017 RMK A01 T00621042  RH  047%=      5-min Rain = 0
KCES 201820Z 18010KT 07/M04 A3017 RMK A01 T00681041  RH  046%=      5-min Rain = 0
KCES 201825Z 18010KT 07/M04 A3016 RMK A01 T00691041  RH  046%=      5-min Rain = 0
KCES 201830Z 18009KT 07/M04 A3016 RMK A01 T00721040  RH  045%=      5-min Rain = 0
KCES 201835Z 18010KT 08/M04 A3016 RMK A01 T00761039  RH  044%=      5-min Rain = 0
KCES 201840Z 19008KT 08/M04 A3016 RMK A01 T00801037  RH  043%=      5-min Rain = 0
KCES 201845Z 19009KT 08/M04 A3016 RMK A01 T00841037  RH  042%=      5-min Rain = 0
KCES 201850Z 18009KT 08/M04 A3016 RMK A01 T00831037  RH  043%=      5-min Rain = 0
KCES 201855Z 18010KT 09/M04 A3015 RMK A01 T00881036  RH  042%=      5-min Rain = 0
KCES 201900Z 19008KT 09/M04 A3015 RMK A01 T00901036  RH  041%=      5-min Rain = 0
KCES 201905Z 19011KT 09/M04 A3014 RMK A01 T00921036  RH  041%=      5-min Rain = 0
KCES 201910Z 18010KT 09/M04 A3014 RMK A01 T00911035  RH  041%=      5-min Rain = 0
KCES 201915Z 18009KT 10/M03 A3014 RMK A01 T00951033  RH  041%=      5-min Rain = 0
KCES 201920Z 18010KT 10/M03 A3013 RMK A01 T01001033  RH  039%=      5-min Rain = 0
KCES 201925Z 18009KT 10/M03 A3013 RMK A01 T01011033  RH  039%=      5-min Rain = 0
KCES 201930Z 18008G13KT 10/M04 A3013 RMK A01 T01001035  RH  039%=      5-min Rain = 0
KCES 201935Z 18007KT 10/M03 A3013 RMK A01 T00971034  RH  040%=      5-min Rain = 0
KCES 201940Z 18007KT 10/M03 A3012 RMK A01 T01001033  RH  039%=      5-min Rain = 0
KCES 201945Z 17008KT 10/M03 A3011 RMK A01 T01011033  RH  039%=      5-min Rain = 0
KCES 201950Z 16008G13KT 10/M03 A3011 RMK A01 T01041032  RH  039%=      5-min Rain = 0
KCES 201955Z 15008KT 11/M03 A301 RMK A01 T01111031  RH  037%=      5-min Rain = 0
KCES 202000Z 15007KT 11/M03 A301 RMK A01 T01141032  RH  036%=      5-min Rain = 0
KCES 202005Z 16007KT 11/M03 A3011 RMK A01 T01131031  RH  037%=      5-min Rain = 0
KCES 202010Z 15009KT 12/M03 A301 RMK A01 T01171030  RH  036%=      5-min Rain = 0
KCES 202015Z 16008KT 12/M03 A301 RMK A01 T01191031  RH  035%=      5-min Rain = 0
KCES 202020Z 16008KT 12/M03 A301 RMK A01 T01151032  RH  036%=      5-min Rain = 0
KCES 202025Z 15009KT 11/M03 A301 RMK A01 T01141032  RH  036%=      5-min Rain = 0
KCES 202030Z 15008KT 11/M03 A3009 RMK A01 T01131032  RH  036%=      5-min Rain = 0
KCES 202035Z 15009KT 11/M03 A3009 RMK A01 T01121032  RH  036%=      5-min Rain = 0
KCES 202040Z 15009KT 11/M03 A3009 RMK A01 T01121033  RH  036%=      5-min Rain = 0
KCES 202045Z 15009KT 11/M03 A3008 RMK A01 T01111033  RH  037%=      5-min Rain = 0
KCES 202050Z 15008KT 11/M03 A3008 RMK A01 T01131032  RH  036%=      5-min Rain = 0
KCES 202055Z 14009KT 11/M03 A3008 RMK A01 T01141032  RH  036%=      5-min Rain = 0
KCES 202100Z 14010KT 12/M03 A3007 RMK A01 T01161032  RH  036%=      5-min Rain = 0
KCES 202105Z 14009KT 12/M03 A3007 RMK A01 T01191031  RH  035%=      5-min Rain = 0
KCES 202110Z 14009KT 12/M03 A3007 RMK A01 T01241031  RH  034%=      5-min Rain = 0
KCES 202115Z 15009KT 13/M03 A3007 RMK A01 T01291031  RH  033%=      5-min Rain = 0
KCES 202120Z 15009KT 13/M03 A3006 RMK A01 T01331030  RH  032%=      5-min Rain = 0
KCES 202125Z 15009KT 14/M03 A3006 RMK A01 T01361031  RH  032%=      5-min Rain = 0
KCES 202130Z 16009KT 14/M03 A3006 RMK A01 T01361032  RH  031%=      5-min Rain = 0
KCES 202135Z 16008KT 14/M03 A3006 RMK A01 T01361030  RH  032%=      5-min Rain = 0
KCES 202140Z 13008KT 14/M03 A3006 RMK A01 T01391028  RH  032%=      5-min Rain = 0
KCES 202145Z 12009KT 13/M03 A3006 RMK A01 T01321030  RH  033%=      5-min Rain = 0
KCES 202150Z 13009KT 13/M03 A3005 RMK A01 T01271032  RH  033%=      5-min Rain = 0
KCES 202155Z 13009KT 13/M03 A3005 RMK A01 T01291031  RH  033%=      5-min Rain = 0
KCES 202200Z 13009KT 13/M03 A3005 RMK A01 T01321030  RH  032%=      5-min Rain = 0
KCES 202205Z 13010KT 13/M03 A3005 RMK A01 T01321031  RH  032%=      5-min Rain = 0
KCES 202210Z 12009KT 14/M03 A3005 RMK A01 T01351030  RH  032%=      5-min Rain = 0
KCES 202215Z 12010KT 14/M03 A3005 RMK A01 T01381030  RH  031%=      5-min Rain = 0
KCES 202220Z 11010KT 13/M03 A3005 RMK A01 T01321030  RH  032%=      5-min Rain = 0
KCES 202225Z 11010KT 13/M03 A3005 RMK A01 T01291032  RH  033%=      5-min Rain = 0
KCES 202230Z 11010KT 13/M03 A3005 RMK A01 T01281032  RH  033%=      5-min Rain = 0
KCES 202235Z 11011KT 13/M03 A3005 RMK A01 T01251033  RH  033%=      5-min Rain = 0
KCES 202240Z 11010KT 12/M03 A3005 RMK A01 T01221033  RH  034%=      5-min Rain = 0
KCES 202245Z 11010KT 12/M03 A3005 RMK A01 T01201033  RH  034%=      5-min Rain = 0
KCES 202250Z 11009KT 12/M03 A3005 RMK A01 T01201033  RH  034%=      5-min Rain = 0
KCES 202255Z 11009KT 12/M03 A3004 RMK A01 T01201032  RH  035%=      5-min Rain = 0
KCES 202300Z 11008KT 12/M03 A3004 RMK A01 T01211032  RH  035%=      5-min Rain = 0
KCES 202305Z 11010KT 12/M03 A3004 RMK A01 T01201032  RH  035%=      5-min Rain = 0
KCES 202310Z 11011KT 12/M03 A3004 RMK A01 T01191031  RH  035%=      5-min Rain = 0
KCES 202315Z 11010KT 12/M03 A3004 RMK A01 T01181031  RH  035%=      5-min Rain = 0
KCES 202320Z 12008KT 12/M03 A3004 RMK A01 T01161031  RH  036%=      5-min Rain = 0
KCES 202325Z 12008KT 11/M03 A3004 RMK A01 T01131031  RH  037%=      5-min Rain = 0
KCES 202330Z 11007KT 11/M03 A3004 RMK A01 T01101030  RH  038%=      5-min Rain = 0
KCES 202335Z 11006KT 11/M03 A3004 RMK A01 T01071030  RH  038%=      5-min Rain = 0
KCES 202340Z 12006KT 10/M03 A3004 RMK A01 T01021030  RH  040%=      5-min Rain = 0
KCES 202345Z 13007KT 10/M03 A3004 RMK A01 T00981030  RH  041%=      5-min Rain = 0
KCES 202350Z 13008KT 10/M03 A3004 RMK A01 T00961030  RH  041%=      5-min Rain = 0
KCES 202355Z 13008KT 10/M03 A3003 RMK A01 T00961031  RH  041%=      5-min Rain = 0
KCES 210000Z 13008KT 09/M03 A3003 RMK A01 T00911032  RH  042%=      5-min Rain = 0
KCES 210005Z 13008KT 09/M03 A3003 RMK A01 T00851033  RH  043%=      5-min Rain = 0
KCES 210010Z 13008KT 08/M03 A3003 RMK A01 T00821032  RH  044%=      5-min Rain = 0
KCES 210015Z 14009KT 08/M03 A3003 RMK A01 T00831032  RH  045%=      5-min Rain = 0
KCES 210020Z 14009KT 08/M03 A3003 RMK A01 T00821031  RH  045%=      5-min Rain = 0
KCES 210025Z 14009KT 08/M03 A3003 RMK A01 T00811031  RH  045%=      5-min Rain = 0
KCES 210030Z 14009KT 08/M03 A3003 RMK A01 T00791031  RH  046%=      5-min Rain = 0
KCES 210035Z 14009KT 08/M03 A3003 RMK A01 T00791031  RH  046%=      5-min Rain = 0
KCES 210040Z 14009KT 08/M03 A3003 RMK A01 T00791032  RH  046%=      5-min Rain = 0
KCES 210045Z 14009KT 08/M03 A3004 RMK A01 T00781032  RH  046%=      5-min Rain = 0
KCES 210050Z 14009KT 08/M03 A3004 RMK A01 T00781032  RH  046%=      5-min Rain = 0
KCES 210055Z 13009KT 08/M03 A3004 RMK A01 T00771032  RH  046%=      5-min Rain = 0
KCES 210100Z 14010KT 07/M03 A3004 RMK A01 T00741033  RH  047%=      5-min Rain = 0
KCES 210105Z 14009KT 07/M03 A3004 RMK A01 T00711033  RH  048%=      5-min Rain = 0
KCES 210110Z 14010KT 07/M03 A3004 RMK A01 T00681033  RH  049%=      5-min Rain = 0
KCES 210115Z 14009KT 07/M03 A3003 RMK A01 T00681032  RH  049%=      5-min Rain = 0
KCES 210120Z 13010KT 07/M03 A3003 RMK A01 T00661032  RH  050%=      5-min Rain = 0
KCES 210125Z 14010KT 07/M03 A3003 RMK A01 T00651031  RH  051%=      5-min Rain = 0
KCES 210130Z 14010KT 06/M03 A3003 RMK A01 T00641030  RH  051%=      5-min Rain = 0
KCES 210135Z 14010KT 07/M03 A3003 RMK A01 T00651029  RH  051%=      5-min Rain = 0
KCES 210140Z 14010KT 07/M03 A3003 RMK A01 T00651029  RH  051%=      5-min Rain = 0
KCES 210145Z 14009KT 06/M03 A3003 RMK A01 T00641029  RH  052%=      5-min Rain = 0
KCES 210150Z 14010KT 06/M03 A3003 RMK A01 T00641028  RH  052%=      5-min Rain = 0
KCES 210155Z 14010KT 06/M03 A3003 RMK A01 T00641028  RH  052%=      5-min Rain = 0
KCES 210200Z 14011KT 07/M03 A3003 RMK A01 T00651027  RH  052%=      5-min Rain = 0
KCES 210205Z 14012KT 07/M03 A3003 RMK A01 T00681026  RH  052%=      5-min Rain = 0
KCES 210210Z 14012G17KT 07/M03 A3002 RMK A01 T00691025  RH  051%=      5-min Rain = 0
KCES 210215Z 14012KT 07/M03 A3002 RMK A01 T00691025  RH  051%=      5-min Rain = 0
KCES 210220Z 14013KT 07/M03 A3002 RMK A01 T00691025  RH  051%=      5-min Rain = 0
KCES 210225Z 14013KT 07/M03 A3002 RMK A01 T00681025  RH  052%=      5-min Rain = 0
KCES 210230Z 14012KT 07/M03 A3002 RMK A01 T00671025  RH  052%=      5-min Rain = 0
KCES 210235Z 14012KT 07/M02 A3002 RMK A01 T00651024  RH  053%=      5-min Rain = 0
KCES 210240Z 14012KT 07/M02 A3002 RMK A01 T00651024  RH  054%=      5-min Rain = 0
KCES 210245Z 15012KT 06/M02 A3002 RMK A01 T00631023  RH  054%=      5-min Rain = 0
KCES 210250Z 15011KT 06/M02 A3002 RMK A01 T00621023  RH  055%=      5-min Rain = 0
KCES 210255Z 14010KT 06/M02 A3002 RMK A01 T00611023  RH  055%=      5-min Rain = 0
KCES 210300Z 14011KT 06/M02 A3002 RMK A01 T00601022  RH  056%=      5-min Rain = 0
KCES 210305Z 14011KT 06/M02 A3001 RMK A01 T00591022  RH  057%=      5-min Rain = 0
KCES 210310Z 14010KT 06/M02 A3001 RMK A01 T00571022  RH  058%=      5-min Rain = 0
KCES 210315Z 14010KT 05/M02 A3001 RMK A01 T00541022  RH  058%=      5-min Rain = 0
KCES 210320Z 13009KT 05/M02 A3001 RMK A01 T00521022  RH  059%=      5-min Rain = 0
KCES 210325Z 13008KT 05/M02 A3001 RMK A01 T00481023  RH  060%=      5-min Rain = 0
KCES 210330Z 12007KT 05/M02 A3001 RMK A01 T00461023  RH  061%=      5-min Rain = 0
KCES 210335Z 12006KT 04/M03 A3001 RMK A01 T00421025  RH  062%=      5-min Rain = 0
KCES 210340Z 11004KT 04/M03 A30 RMK A01 T00381026  RH  063%=      5-min Rain = 0
KCES 210345Z 10003KT 03/M03 A30 RMK A01 T00331028  RH  064%=      5-min Rain = 0
KCES 210350Z 09003KT 03/M03 A30 RMK A01 T00301028  RH  066%=      5-min Rain = 0
KCES 210355Z 04003KT 03/M03 A30 RMK A01 T00271031  RH  066%=      5-min Rain = 0
KCES 210400Z 03004KT 02/M04 A30 RMK A01 T00191035  RH  068%=      5-min Rain = 0
KCES 210405Z 02004KT 01/M04 A30 RMK A01 T00111039  RH  070%=      5-min Rain = 0
KCES 210410Z 03003KT 01/M04 A30 RMK A01 T00061040  RH  072%=      5-min Rain = 0
KCES 210415Z 07002KT 00/M04 A2999 RMK A01 T00041040  RH  072%=      5-min Rain = 0
KCES 210420Z 10003KT 01/M04 A2999 RMK A01 T00081036  RH  073%=      5-min Rain = 0
KCES 210425Z 10004KT 01/M03 A2999 RMK A01 T00131034  RH  071%=      5-min Rain = 0
KCES 210430Z 07004KT 01/M04 A2999 RMK A01 T00131036  RH  070%=      5-min Rain = 0
KCES 210435Z 04004KT 00/M05 A2999 RMK A01 T00021045  RH  071%=      5-min Rain = 0
KCES 210440Z 04004KT M01/M05 A2999 RMK A01 T10071046  RH  075%=      5-min Rain = 0
KCES 210445Z 05003KT M01/M05 A2999 RMK A01 T10101046  RH  077%=      5-min Rain = 0
KCES 210450Z 06002KT M01/M05 A2999 RMK A01 T10121047  RH  077%=      5-min Rain = 0
KCES 210455Z 03002KT M01/M05 A30 RMK A01 T10141049  RH  078%=      5-min Rain = 0
KCES 210500Z 04003KT M02/M05 A30 RMK A01 T10171050  RH  079%=      5-min Rain = 0
KCES 210505Z 06003KT M02/M05 A30 RMK A01 T10181048  RH  080%=      5-min Rain = 0
KCES 210510Z 06002KT M02/M05 A30 RMK A01 T10171047  RH  080%=      5-min Rain = 0
KCES 210515Z 07002KT M02/M05 A2999 RMK A01 T10211052  RH  079%=      5-min Rain = 0
KCES 210520Z 07002KT M02/M05 A30 RMK A01 T10221052  RH  080%=      5-min Rain = 0
KCES 210525Z 05002KT M03/M06 A30 RMK A01 T10251055  RH  080%=      5-min Rain = 0
KCES 210530Z 05002KT M03/M06 A30 RMK A01 T10311062  RH  079%=      5-min Rain = 0
KCES 210535Z 05002KT M04/M07 A2999 RMK A01 T10361065  RH  080%=      5-min Rain = 0
KCES 210540Z 03001KT M04/M07 A2999 RMK A01 T10401068  RH  081%=      5-min Rain = 0
KCES 210545Z 02001KT M05/M07 A2999 RMK A01 T10451073  RH  081%=      5-min Rain = 0
KCES 210550Z 05002KT M05/M07 A2999 RMK A01 T10451068  RH  084%=      5-min Rain = 0
KCES 210555Z 06002KT M04/M05 A2999 RMK A01 T10351054  RH  087%=      5-min Rain = 0

Page generated in 0.0195 seconds.